Time;durP1;ratioP1;P1;durP2;ratioP2;P2;SDS_P1;SDS_P2;PMS_P1;PMS_P2;Temp;Humidity;BMP_temperature;BMP_pressure;BME280_temperature;BME280_humidity;BME280_pressure;Samples;Min_cycle;Max_cycle;Signal;HPM_P1;HPM_P2
2024/02/05 00:01:50;;;;;;;36.17;5.63;;;;;;;13.39;76.22;102114.88;5028713;28;20120;-52
2024/02/05 00:04:15;;;;;;;29.35;5.50;;;;;;;13.31;76.45;102123.38;5030701;28;20080;-51
2024/02/05 00:06:41;;;;;;;30.92;4.90;;;;;;;13.41;76.53;102122.75;5030407;28;20573;-48
2024/02/05 00:09:07;;;;;;;34.42;5.60;;;;;;;13.31;76.81;102100.72;5029506;28;20128;-47
2024/02/05 00:11:33;;;;;;;29.30;5.40;;;;;;;13.28;76.95;102115.47;5030480;28;20163;-52
2024/02/05 00:13:59;;;;;;;32.38;6.00;;;;;;;13.63;75.63;102111.88;5029688;28;20551;-49
2024/02/05 00:16:24;;;;;;;32.42;5.60;;;;;;;13.24;77.48;102119.75;5030963;28;20120;-51
2024/02/05 00:18:50;;;;;;;37.47;5.70;;;;;;;13.35;76.53;102122.63;5029486;28;20041;-48
2024/02/05 00:21:16;;;;;;;28.20;5.97;;;;;;;12.99;77.16;102122.66;5028436;28;20488;-56
2024/02/05 00:23:42;;;;;;;40.47;6.15;;;;;;;13.01;78.09;102126.16;5029883;28;20052;-50
2024/02/05 00:26:08;;;;;;;30.85;6.45;;;;;;;12.94;78.17;102134.72;5029661;28;20034;-49
2024/02/05 00:28:33;;;;;;;29.88;5.88;;;;;;;13.44;76.70;102132.41;5029413;28;20029;-52
2024/02/05 00:30:58;;;;;;;27.60;5.78;;;;;;;13.31;77.03;102123.38;5029693;28;20039;-52
2024/02/05 00:33:24;;;;;;;26.48;5.45;;;;;;;13.28;76.81;102145.19;5030356;28;20145;-52
2024/02/05 00:35:49;;;;;;;35.72;5.93;;;;;;;12.96;77.15;102117.31;5029470;28;20400;-49
2024/02/05 00:38:15;;;;;;;34.20;5.55;;;;;;;13.17;76.06;102127.47;5029333;28;20103;-51
2024/02/05 00:40:44;;;;;;;34.88;6.18;;;;;;;13.11;77.01;102116.81;5029699;28;20030;-50
2024/02/05 00:43:10;;;;;;;30.35;5.38;;;;;;;13.15;76.58;102116.06;5049325;28;20040;-54
2024/02/05 00:45:36;;;;;;;33.53;6.32;;;;;;;13.14;76.09;102136.13;5049532;28;20407;-48
2024/02/05 00:48:02;;;;;;;28.15;5.57;;;;;;;13.44;76.16;102135.03;5048803;28;20065;-52
2024/02/05 00:50:27;;;;;;;36.42;5.63;;;;;;;13.12;76.81;102126.41;5050142;28;20032;-49
2024/02/05 00:52:52;;;;;;;28.30;4.88;;;;;;;13.20;77.38;102133.63;5049708;28;20045;-49
2024/02/05 00:55:18;;;;;;;28.20;5.75;;;;;;;13.15;76.19;102131.75;5043973;28;20084;-50
2024/02/05 00:57:43;;;;;;;30.90;6.03;;;;;;;12.93;77.32;102133.84;5028646;28;20086;-50
2024/02/05 01:00:09;;;;;;;27.17;5.28;;;;;;;13.30;76.54;102119.88;5029518;28;20037;-49
2024/02/05 01:02:36;;;;;;;22.95;5.10;;;;;;;13.18;77.36;102130.09;5029902;28;20036;-51
2024/02/05 01:05:03;;;;;;;33.75;6.25;;;;;;;13.19;75.93;102149.31;5029166;28;20619;-49
2024/02/05 01:07:29;;;;;;;30.30;5.20;;;;;;;13.18;76.34;102124.84;5029447;28;20057;-49
2024/02/05 01:09:54;;;;;;;37.72;5.88;;;;;;;13.21;76.42;102116.19;5029091;28;20067;-53
2024/02/05 01:12:19;;;;;;;33.45;6.00;;;;;;;13.66;75.33;102119.78;5029450;28;20056;-48
2024/02/05 01:14:45;;;;;;;30.58;5.65;;;;;;;13.50;75.12;102127.28;5029336;28;20433;-47
2024/02/05 01:17:11;;;;;;;31.20;5.40;;;;;;;13.72;74.03;102109.41;5029458;28;20038;-49
2024/02/05 01:19:36;;;;;;;29.80;6.13;;;;;;;13.62;74.67;102117.06;5028950;28;20033;-52
2024/02/05 01:22:02;;;;;;;34.28;5.43;;;;;;;12.79;77.38;102116.94;5026745;28;20029;-48
2024/02/05 01:24:27;;;;;;;28.88;5.38;;;;;;;13.26;75.91;102119.78;5029326;28;20041;-51
2024/02/05 01:26:52;;;;;;;35.95;5.47;;;;;;;12.89;77.48;102110.19;5028637;28;20052;-49
2024/02/05 01:29:18;;;;;;;29.90;4.88;;;;;;;13.22;76.74;102110.09;5027558;28;20057;-52
2024/02/05 01:31:44;;;;;;;34.90;6.20;;;;;;;12.83;78.16;102108.31;5029237;28;20143;-49
2024/02/05 01:34:09;;;;;;;33.85;5.90;;;;;;;13.32;76.06;102112.06;5045352;28;20038;-52
2024/02/05 01:36:35;;;;;;;41.53;5.95;;;;;;;13.48;75.46;102110.69;5029166;28;20039;-49
2024/02/05 01:39:00;;;;;;;39.17;5.68;;;;;;;13.26;76.69;102106.69;5028468;28;20056;-47
2024/02/05 01:41:25;;;;;;;32.80;5.65;;;;;;;13.24;75.74;102108.38;5029227;28;20125;-51
2024/02/05 01:43:51;;;;;;;33.75;5.60;;;;;;;13.32;75.83;102117.31;5027877;28;20037;-52
2024/02/05 01:46:21;;;;;;;29.65;5.57;;;;;;;13.22;76.40;102097.03;5028516;28;20037;-48
2024/02/05 01:48:54;;;;;;;36.20;5.63;;;;;;;13.39;75.48;102096.53;5028361;28;20045;-50
2024/02/05 01:51:21;;;;;;;27.60;5.88;;;;;;;13.26;75.88;102098.84;5029345;28;20125;-50
2024/02/05 01:53:50;;;;;;;27.25;5.40;;;;;;;13.37;75.14;102113.03;5031283;28;20037;-47
2024/02/05 01:56:16;;;;;;;40.63;5.78;;;;;;;13.02;76.59;102102.66;5033177;28;20040;-47
2024/02/05 01:58:42;;;;;;;41.20;5.95;;;;;;;12.99;77.10;102102.56;5032762;28;20041;-50
2024/02/05 02:01:09;;;;;;;37.58;6.05;;;;;;;13.43;75.89;102093.94;5032573;28;20454;-49
2024/02/05 02:03:40;;;;;;;30.50;5.80;;;;;;;13.42;75.97;102098.31;5036642;22;20125;-80
2024/02/05 02:06:09;;;;;;;32.00;5.53;;;;;;;13.01;76.89;102095.66;5026858;28;20048;-80
2024/02/05 02:08:41;;;;;;;39.15;5.97;;;;;;;13.51;74.97;102097.63;5028541;28;20033;-79
2024/02/05 02:11:09;;;;;;;36.03;6.30;;;;;;;13.03;76.04;102090.44;5024788;28;20486;-79
2024/02/05 02:13:35;;;;;;;33.83;5.70;;;;;;;13.27;76.08;102103.22;5025078;28;20594;-79
2024/02/05 02:16:06;;;;;;;36.53;5.45;;;;;;;13.04;76.26;102100.06;5036839;28;20041;-81
2024/02/05 02:18:35;;;;;;;36.63;5.60;;;;;;;13.05;77.37;102096.63;5037577;28;20052;-78
2024/02/05 02:21:02;;;;;;;35.70;5.78;;;;;;;13.05;76.98;102100.97;5032822;28;20112;-80
2024/02/05 02:23:33;;;;;;;36.40;5.57;;;;;;;12.90;77.71;102094.53;5033486;28;20153;-80
2024/02/05 02:26:09;;;;;;;36.67;5.78;;;;;;;12.66;77.60;102099.16;5031064;28;20459;-78
2024/02/05 02:28:37;;;;;;;35.53;4.95;;;;;;;13.08;76.78;102094.06;5032912;28;20029;-79
2024/02/05 02:31:03;;;;;;;34.25;4.93;;;;;;;12.92;77.42;102110.25;5032657;28;20450;-78
2024/02/05 02:33:41;;;;;;;34.08;5.82;;;;;;;12.43;79.08;102097.72;5032793;28;20033;-78
2024/02/05 02:36:09;;;;;;;36.10;5.47;;;;;;;13.09;76.48;102090.59;5032426;28;20116;-78
2024/02/05 02:38:54;;;;;;;30.05;6.20;;;;;;;12.75;77.95;102102.00;5031370;28;20034;-77
2024/02/05 02:41:24;;;;;;;34.75;5.22;;;;;;;13.08;76.22;102086.19;5033884;28;20033;-79
2024/02/05 02:43:54;;;;;;;37.28;6.13;;;;;;;13.05;76.97;102085.25;5032880;28;20033;-78
2024/02/05 02:46:25;;;;;;;38.95;6.75;;;;;;;12.86;77.27;102086.56;5031905;28;20041;-78
2024/02/05 02:48:51;;;;;;;39.15;5.97;;;;;;;12.79;77.30;102088.16;5032980;28;20042;-78
2024/02/05 02:51:16;;;;;;;33.15;5.78;;;;;;;12.96;76.91;102097.28;5034581;28;20505;-80
2024/02/05 02:53:42;;;;;;;32.33;5.47;;;;;;;13.09;76.32;102080.13;5032756;28;20048;-77
2024/02/05 02:56:09;;;;;;;31.50;6.05;;;;;;;12.75;77.08;102095.88;5033105;28;20084;-78
2024/02/05 02:58:34;;;;;;;33.00;5.45;;;;;;;13.08;76.39;102094.06;5033708;28;20044;-77
2024/02/05 03:00:59;;;;;;;36.47;5.85;;;;;;;13.06;76.05;102079.16;5033028;28;20112;-78
2024/02/05 03:03:25;;;;;;;32.35;5.88;;;;;;;13.05;75.45;102087.88;5034022;28;20030;-78
2024/02/05 03:05:50;;;;;;;29.25;5.93;;;;;;;12.89;76.53;102076.16;5033116;28;20041;-78
2024/02/05 03:08:16;;;;;;;42.50;5.80;;;;;;;12.82;77.08;102075.13;5031412;28;20033;-78
2024/02/05 03:10:44;;;;;;;32.33;5.93;;;;;;;12.76;77.01;102085.44;5034189;28;20236;-78
2024/02/05 03:13:10;;;;;;;29.42;5.90;;;;;;;12.94;76.08;102067.56;5025418;28;20029;-80
2024/02/05 03:15:38;;;;;;;34.25;6.28;;;;;;;13.32;74.67;102070.16;5036580;28;20143;-76
2024/02/05 03:18:15;;;;;;;38.00;6.47;;;;;;;12.70;77.15;102068.72;5036023;28;20498;-77
2024/02/05 03:20:42;;;;;;;45.30;6.32;;;;;;;12.58;77.90;102067.59;5036866;28;20397;-77
2024/02/05 03:23:09;;;;;;;31.48;5.68;;;;;;;12.74;77.20;102061.00;5035789;28;20029;-79
2024/02/05 03:25:34;;;;;;;29.10;5.45;;;;;;;12.41;78.79;102068.03;5033402;28;20040;-76
2024/02/05 03:28:00;;;;;;;36.08;5.63;;;;;;;12.80;77.13;102058.53;5032301;28;20030;-76
2024/02/05 03:30:29;;;;;;;31.95;6.13;;;;;;;12.25;78.32;102068.50;5032873;28;20030;-80
2024/02/05 03:32:59;;;;;;;40.60;7.10;;;;;;;12.91;76.51;102050.91;5031567;28;20072;-78
2024/02/05 03:35:25;;;;;;;35.30;5.55;;;;;;;12.62;76.74;102055.47;5031943;28;20111;-77
2024/02/05 03:37:51;;;;;;;33.10;5.85;;;;;;;12.47;78.26;102060.31;5029947;28;20034;-78
2024/02/05 03:40:17;;;;;;;26.65;5.32;;;;;;;12.76;77.51;102050.53;5032180;28;20032;-79
2024/02/05 03:42:52;;;;;;;38.33;6.18;;;;;;;12.53;77.80;102048.28;5031707;28;20061;-80
2024/02/05 03:45:18;;;;;;;34.45;5.50;;;;;;;12.70;77.22;102046.06;5031475;28;20037;-79
2024/02/05 03:47:44;;;;;;;35.83;6.18;;;;;;;12.51;77.75;102057.81;5031703;28;20556;-79
2024/02/05 03:50:12;;;;;;;34.53;5.63;;;;;;;12.37;78.28;102058.34;5021420;28;20041;-79
2024/02/05 03:52:40;;;;;;;36.72;6.07;;;;;;;12.91;76.49;102061.38;5031710;28;20038;-79
2024/02/05 03:55:06;;;;;;;38.20;6.45;;;;;;;12.68;77.52;102058.25;5031123;28;20485;-79
2024/02/05 03:57:35;;;;;;;32.88;6.07;;;;;;;13.12;75.34;102054.03;5032644;28;20065;-77
2024/02/05 04:00:04;;;;;;;40.33;6.85;;;;;;;12.64;76.96;102058.09;5031933;28;20521;-79
2024/02/05 04:02:29;;;;;;;35.55;5.72;;;;;;;13.06;75.86;102053.84;5032428;28;20033;-80
2024/02/05 04:04:57;;;;;;;41.15;5.45;;;;;;;13.03;75.88;102059.03;5031056;28;20823;-79
2024/02/05 04:07:22;;;;;;;32.55;5.88;;;;;;;13.08;75.53;102059.13;5032407;28;20532;-79
2024/02/05 04:09:47;;;;;;;37.13;6.03;;;;;;;13.28;74.30;102052.63;5033248;28;20042;-79
2024/02/05 04:12:13;;;;;;;36.10;6.25;;;;;;;13.23;74.23;102054.28;5036066;28;20045;-79
2024/02/05 04:14:38;;;;;;;34.28;5.97;;;;;;;13.29;74.82;102044.81;5032685;28;20079;-78
2024/02/05 04:17:10;;;;;;;34.53;6.72;;;;;;;12.97;75.70;102041.47;5030205;28;20045;-78
2024/02/05 04:19:35;;;;;;;41.70;6.47;;;;;;;12.65;77.11;102054.66;5030465;28;20040;-78
2024/02/05 04:22:01;;;;;;;39.95;7.18;;;;;;;13.01;76.11;102045.91;5030540;28;20037;-77
2024/02/05 04:24:26;;;;;;;44.38;6.65;;;;;;;12.89;76.66;102042.13;5030857;28;20486;-79
2024/02/05 04:26:51;;;;;;;35.67;6.40;;;;;;;12.78;76.23;102046.25;5030207;28;20060;-78
2024/02/05 04:29:20;;;;;;;29.63;5.80;;;;;;;13.08;75.51;102046.03;5030615;28;20053;-77
2024/02/05 04:31:49;;;;;;;35.10;7.03;;;;;;;12.81;76.32;102054.16;5030992;28;20133;-79
2024/02/05 04:34:15;;;;;;;40.90;6.13;;;;;;;12.46;77.94;102048.97;5030215;28;20034;-78
2024/02/05 04:36:43;;;;;;;38.13;6.43;;;;;;;13.01;76.44;102056.38;5030666;28;20037;-77
2024/02/05 04:39:10;;;;;;;35.97;6.55;;;;;;;12.73;76.88;102056.59;5030445;28;20040;-77
2024/02/05 04:41:36;;;;;;;36.97;6.20;;;;;;;13.63;73.27;102058.56;5031003;28;20495;-78
2024/02/05 04:44:04;;;;;;;36.65;5.88;;;;;;;13.27;75.00;102049.13;5036548;28;20038;-77
2024/02/05 04:46:33;;;;;;;41.67;6.00;;;;;;;13.16;74.41;102053.25;5040512;28;20093;-78
2024/02/05 04:48:58;;;;;;;39.47;6.15;;;;;;;12.75;76.24;102054.88;5036126;28;20083;-79
2024/02/05 04:51:24;;;;;;;28.70;5.85;;;;;;;13.01;75.11;102048.53;5030612;28;20025;-77
2024/02/05 04:53:49;;;;;;;42.83;6.75;;;;;;;12.58;77.14;102058.84;5030612;28;20052;-79
2024/02/05 04:56:14;;;;;;;39.60;6.25;;;;;;;12.99;75.59;102049.34;5030408;28;20069;-77
2024/02/05 04:58:40;;;;;;;32.53;5.85;;;;;;;12.74;75.98;102058.38;5029983;28;20041;-77
2024/02/05 05:01:05;;;;;;;39.03;6.03;;;;;;;13.03;75.31;102059.03;5029382;28;20029;-79
2024/02/05 05:03:34;;;;;;;40.47;6.00;;;;;;;13.01;74.73;102056.38;5029856;28;20087;-76
2024/02/05 05:06:00;;;;;;;40.00;6.28;;;;;;;12.73;75.39;102060.97;5029911;28;20675;-77
2024/02/05 05:08:25;;;;;;;32.58;6.05;;;;;;;12.86;74.88;102056.03;5030314;28;20112;-79
2024/02/05 05:10:51;;;;;;;36.30;6.13;;;;;;;13.14;74.27;102059.28;5029713;28;20060;-78
2024/02/05 05:13:16;;;;;;;39.08;5.88;;;;;;;12.82;75.39;102053.31;5028866;28;20033;-78
2024/02/05 05:15:46;;;;;;;33.50;6.40;;;;;;;13.28;73.21;102063.09;5028460;28;20506;-77
2024/02/05 05:18:11;;;;;;;34.08;6.22;;;;;;;12.56;75.72;102074.50;5012383;28;20033;-78
2024/02/05 05:20:37;;;;;;;28.52;5.38;;;;;;;12.97;74.80;102059.78;5028744;28;20136;-77
2024/02/05 05:23:03;;;;;;;43.25;6.10;;;;;;;12.72;75.23;102057.44;5028679;28;20095;-80
2024/02/05 05:25:28;;;;;;;33.67;5.80;;;;;;;12.60;75.95;102063.28;5030195;28;20022;-79
2024/02/05 05:27:53;;;;;;;36.47;5.78;;;;;;;13.02;74.35;102050.28;5031977;28;20053;-79
2024/02/05 05:30:19;;;;;;;36.42;5.55;;;;;;;12.64;75.67;102060.72;5034982;28;20083;-78
2024/02/05 05:32:44;;;;;;;39.97;6.72;;;;;;;12.37;76.39;102054.00;5032761;28;20033;-77
2024/02/05 05:35:09;;;;;;;35.28;5.95;;;;;;;12.96;74.74;102052.78;5034418;28;20038;-77
2024/02/05 05:37:43;;;;;;;40.33;6.57;;;;;;;12.81;75.53;102051.53;5034190;28;20490;-79
2024/02/05 05:40:09;;;;;;;30.80;5.78;;;;;;;12.62;75.52;102046.75;5035410;28;20091;-79
2024/02/05 05:42:35;;;;;;;34.78;5.82;;;;;;;12.82;75.02;102041.09;5033840;28;20435;-79
2024/02/05 05:45:00;;;;;;;30.20;5.70;;;;;;;12.63;75.88;102028.44;5034949;28;20040;-78
2024/02/05 05:47:29;;;;;;;31.08;5.63;;;;;;;12.19;76.65;102028.28;5035621;28;20406;-79
2024/02/05 05:49:54;;;;;;;42.25;5.47;;;;;;;12.50;76.27;102036.88;5034910;28;20053;-80
2024/02/05 05:52:20;;;;;;;36.20;6.20;;;;;;;12.48;76.08;102015.91;5034537;28;20411;-78
2024/02/05 05:54:45;;;;;;;27.48;5.43;;;;;;;12.64;75.77;102018.88;5033802;28;20040;-78
2024/02/05 05:57:11;;;;;;;32.70;5.75;;;;;;;12.25;76.43;102022.31;5034355;28;20036;-78
2024/02/05 05:59:40;;;;;;;31.83;4.93;;;;;;;12.30;76.62;102015.47;5032525;28;20490;-78
2024/02/05 06:02:05;;;;;;;36.20;5.38;;;;;;;12.37;76.85;102016.50;5033394;28;20041;-78
2024/02/05 06:04:36;;;;;;;36.90;5.85;;;;;;;12.20;76.65;102027.41;5033526;28;20045;-77
2024/02/05 06:07:04;;;;;;;23.70;5.15;;;;;;;12.28;76.43;102017.16;5033400;28;20502;-77
2024/02/05 06:09:33;;;;;;;32.00;5.30;;;;;;;12.56;74.90;102013.47;5033688;28;20023;-79
2024/02/05 06:11:58;;;;;;;42.20;5.63;;;;;;;12.33;76.07;102032.94;5032725;28;20505;-78
2024/02/05 06:14:24;;;;;;;27.45;5.82;;;;;;;12.06;77.58;102015.75;5033315;28;20130;-78
2024/02/05 06:16:49;;;;;;;30.67;5.35;;;;;;;12.05;77.19;102018.31;5032058;28;20571;-77
2024/02/05 06:19:14;;;;;;;39.72;5.78;;;;;;;12.19;77.19;102023.06;5033006;28;20072;-79
2024/02/05 06:21:40;;;;;;;29.55;5.60;;;;;;;12.39;75.69;102025.25;5032825;28;20121;-79
2024/02/05 06:24:08;;;;;;;32.78;5.82;;;;;;;12.16;77.19;102012.50;5032932;28;20061;-78
2024/02/05 06:26:33;;;;;;;36.00;6.10;;;;;;;12.52;76.09;102007.28;5031733;28;20548;-79
2024/02/05 06:28:59;;;;;;;27.75;5.85;;;;;;;12.11;77.51;102006.28;5032317;28;20038;-81
2024/02/05 06:31:24;;;;;;;32.05;6.65;;;;;;;11.98;78.07;102019.00;5032579;28;20045;-78
2024/02/05 06:33:49;;;;;;;30.83;6.25;;;;;;;12.48;76.02;102007.16;5032575;28;20124;-77
2024/02/05 06:36:15;;;;;;;31.20;6.32;;;;;;;12.52;76.27;102017.72;5032845;28;20034;-80
2024/02/05 06:38:43;;;;;;;34.70;6.38;;;;;;;12.41;76.24;102028.78;5032154;28;20526;-77
2024/02/05 06:41:09;;;;;;;37.05;6.80;;;;;;;12.47;76.22;102024.59;5032335;28;20038;-78
2024/02/05 06:43:39;;;;;;;40.60;7.10;;;;;;;12.03;77.57;102027.81;5033016;28;20052;-78
2024/02/05 06:46:05;;;;;;;43.47;7.55;;;;;;;12.05;78.17;102037.50;5032549;28;20122;-77
2024/02/05 06:48:36;;;;;;;41.25;6.90;;;;;;;11.81;78.90;102015.06;5031220;28;20029;-77
2024/02/05 06:51:01;;;;;;;36.65;7.00;;;;;;;12.36;76.22;102027.81;5032121;28;20037;-77
2024/02/05 06:53:27;;;;;;;36.97;7.00;;;;;;;11.84;78.64;102030.78;5031133;28;20041;-78
2024/02/05 06:55:52;;;;;;;39.58;7.20;;;;;;;12.19;76.43;102032.63;5030831;28;20037;-79
2024/02/05 06:58:19;;;;;;;39.25;7.13;;;;;;;12.06;77.91;102028.81;5032374;28;20103;-77
2024/02/05 07:00:44;;;;;;;38.92;6.82;;;;;;;12.38;76.34;102032.19;5032628;28;20036;-79
2024/02/05 07:03:13;;;;;;;39.80;7.45;;;;;;;12.04;77.83;102045.28;5023568;28;20041;-77
2024/02/05 07:05:38;;;;;;;45.53;7.93;;;;;;;12.10;77.44;102034.97;5032250;28;20490;-79
2024/02/05 07:08:06;;;;;;;37.08;7.47;;;;;;;12.10;78.19;102041.09;5031418;28;20048;-78
2024/02/05 07:10:35;;;;;;;36.67;7.78;;;;;;;11.99;78.32;102055.63;5032437;28;20412;-77
2024/02/05 07:13:00;;;;;;;38.50;7.43;;;;;;;11.99;77.67;102042.56;5031559;28;20055;-79
2024/02/05 07:15:25;;;;;;;36.53;7.43;;;;;;;11.98;78.38;102060.81;5031946;28;20410;-79
2024/02/05 07:17:51;;;;;;;40.30;7.55;;;;;;;12.55;76.47;102054.44;5031371;28;20041;-78
2024/02/05 07:20:17;;;;;;;42.35;7.47;;;;;;;12.56;75.96;102052.72;5032063;28;20080;-79
2024/02/05 07:22:43;;;;;;;36.33;7.97;;;;;;;12.34;77.29;102058.25;5032077;28;20033;-78
2024/02/05 07:25:09;;;;;;;34.67;7.55;;;;;;;12.29;76.21;102057.25;5030137;28;20029;-78
2024/02/05 07:27:35;;;;;;;34.83;6.88;;;;;;;12.15;77.53;102068.25;5033553;28;20193;-78
2024/02/05 07:30:01;;;;;;;35.20;7.55;;;;;;;12.68;75.62;102073.94;5031613;28;20033;-78
2024/02/05 07:32:26;;;;;;;37.53;7.38;;;;;;;12.18;77.05;102070.94;5031676;28;20087;-78
2024/02/05 07:34:52;;;;;;;36.15;7.32;;;;;;;12.81;75.45;102055.03;5030446;28;20117;-79
2024/02/05 07:37:17;;;;;;;37.95;8.05;;;;;;;12.63;75.46;102067.69;5032387;28;20037;-79
2024/02/05 07:39:46;;;;;;;38.55;8.25;;;;;;;12.61;75.85;102061.56;5032005;28;20125;-79
2024/02/05 07:42:14;;;;;;;44.90;8.20;;;;;;;12.43;76.34;102066.34;5016024;28;20041;-79
2024/02/05 07:44:40;;;;;;;39.80;8.00;;;;;;;12.73;75.85;102058.34;5037572;28;20029;-78
2024/02/05 07:47:05;;;;;;;43.80;8.02;;;;;;;12.53;76.81;102061.34;5039096;28;20102;-78
2024/02/05 07:49:34;;;;;;;36.33;7.90;;;;;;;12.08;78.53;102068.91;5038576;28;20120;-78
2024/02/05 07:51:59;;;;;;;39.35;8.38;;;;;;;12.01;77.40;102073.97;5029552;28;20112;-77
2024/02/05 07:54:27;;;;;;;43.90;8.02;;;;;;;12.35;77.52;102065.25;5032097;28;20063;-78
2024/02/05 07:56:52;;;;;;;42.88;8.30;;;;;;;12.59;76.45;102064.13;5031579;28;20065;-79
2024/02/05 07:59:18;;;;;;;48.42;8.52;;;;;;;12.47;76.88;102069.06;5031789;28;20521;-79
2024/02/05 08:01:44;;;;;;;40.38;7.78;;;;;;;12.84;75.81;102060.34;5029995;28;20033;-78
2024/02/05 08:04:09;;;;;;;40.65;8.38;;;;;;;12.34;77.23;102066.09;5023170;28;20125;-78
2024/02/05 08:06:41;;;;;;;38.70;7.75;;;;;;;12.56;76.32;102071.88;5032214;28;20129;-78
2024/02/05 08:09:09;;;;;;;45.47;8.95;;;;;;;11.92;78.10;102076.31;5036097;28;20064;-79
2024/02/05 08:11:34;;;;;;;39.25;8.57;;;;;;;12.51;76.42;102068.28;5048558;28;20033;-78
2024/02/05 08:14:00;;;;;;;38.35;8.52;;;;;;;12.78;75.53;102075.03;5045139;28;20599;-79
2024/02/05 08:16:25;;;;;;;44.15;9.48;;;;;;;12.34;76.44;102050.41;5033580;28;20115;-79
2024/02/05 08:18:50;;;;;;;35.78;8.85;;;;;;;12.69;75.91;102067.84;5035844;28;20036;-78
2024/02/05 08:21:16;;;;;;;40.92;8.23;;;;;;;12.42;76.46;102070.69;5031350;28;20398;-79
2024/02/05 08:23:42;;;;;;;39.97;8.65;;;;;;;12.29;76.69;102072.94;5031854;28;20087;-80
2024/02/05 08:26:19;;;;;;;37.78;8.23;;;;;;;12.31;77.17;102060.81;5030575;28;20037;-77
2024/02/05 08:28:46;;;;;;;40.53;8.38;;;;;;;12.61;75.85;102058.94;5031988;28;20091;-78
2024/02/05 08:31:12;;;;;;;48.20;8.35;;;;;;;12.11;77.74;102060.28;5033731;28;20025;-80
2024/02/05 08:33:40;;;;;;;43.20;8.85;;;;;;;11.63;79.28;102057.22;5032372;28;20445;-82
2024/02/05 08:36:05;;;;;;;50.35;8.48;;;;;;;12.12;78.56;102060.34;5030705;28;20129;-78
2024/02/05 08:38:31;;;;;;;41.97;7.88;;;;;;;12.23;77.87;102062.31;5029867;28;20128;-77
2024/02/05 08:40:56;;;;;;;38.60;7.88;;;;;;;12.22;77.14;102055.31;5037443;28;20056;-78
2024/02/05 08:43:22;;;;;;;44.40;8.35;;;;;;;12.57;76.52;102055.34;5038131;28;20067;-78
2024/02/05 08:45:48;;;;;;;37.40;7.93;;;;;;;12.08;77.92;102063.69;5036324;28;20543;-78
2024/02/05 08:48:19;;;;;;;37.08;7.95;;;;;;;12.08;77.15;102052.34;5033046;28;20025;-80
2024/02/05 08:50:45;;;;;;;41.58;6.70;;;;;;;12.31;76.97;102064.31;5031008;28;20037;-78
2024/02/05 08:53:10;;;;;;;40.40;7.07;;;;;;;12.39;76.45;102051.41;5030499;28;20034;-81
2024/02/05 08:55:38;;;;;;;38.33;6.50;;;;;;;12.40;75.96;102063.63;5031276;28;20034;-81
2024/02/05 08:58:04;;;;;;;38.00;7.22;;;;;;;12.64;75.17;102040.69;5030657;28;20115;-78
2024/02/05 09:00:29;;;;;;;38.47;7.55;;;;;;;12.50;75.34;102040.34;5032178;28;20080;-78
2024/02/05 09:02:55;;;;;;;39.55;6.78;;;;;;;12.45;75.29;102052.44;5030025;28;20103;-79
2024/02/05 09:05:20;;;;;;;36.17;8.10;;;;;;;12.66;75.15;102054.69;5032031;28;20537;-80
2024/02/05 09:07:46;;;;;;;52.65;7.90;;;;;;;12.26;75.91;102041.50;5031146;28;20049;-80
2024/02/05 09:10:15;;;;;;;42.17;7.28;;;;;;;12.66;75.00;102040.72;5031330;28;20390;-80
2024/02/05 09:12:41;;;;;;;38.38;6.32;;;;;;;12.67;74.97;102055.56;5030584;28;20518;-80
2024/02/05 09:15:06;;;;;;;32.75;6.75;;;;;;;12.77;74.56;102052.31;5030295;28;20026;-79
2024/02/05 09:17:35;;;;;;;36.17;6.90;;;;;;;12.16;75.95;102054.31;5031132;28;20044;-80
2024/02/05 09:20:00;;;;;;;41.47;7.60;;;;;;;12.45;74.09;102057.66;5033389;28;20065;-79
2024/02/05 09:22:26;;;;;;;36.53;6.20;;;;;;;12.35;75.85;102036.47;5030840;28;20442;-80
2024/02/05 09:24:51;;;;;;;40.17;6.82;;;;;;;12.43;75.94;102054.16;5030649;28;20398;-78
2024/02/05 09:27:18;;;;;;;39.15;6.15;;;;;;;12.41;75.49;102060.19;5031189;28;20068;-77
2024/02/05 09:29:47;;;;;;;42.65;6.20;;;;;;;12.86;74.01;102053.44;5030523;28;20034;-79
2024/02/05 09:32:12;;;;;;;38.05;6.40;;;;;;;12.81;73.63;102052.41;5029862;28;20495;-81
2024/02/05 09:34:40;;;;;;;40.50;6.93;;;;;;;12.35;74.97;102060.91;5029491;28;20033;-79
2024/02/05 09:37:06;;;;;;;37.85;6.68;;;;;;;12.48;75.38;102043.78;5029587;28;20029;-78
2024/02/05 09:39:34;;;;;;;36.50;5.85;;;;;;;12.22;75.41;102043.13;5030408;28;20037;-79
2024/02/05 09:42:04;;;;;;;32.05;6.00;;;;;;;12.52;74.45;102020.34;5029806;28;20501;-78
2024/02/05 09:44:35;;;;;;;39.33;5.80;;;;;;;12.37;75.05;102035.69;5030671;28;20026;-79
2024/02/05 09:47:01;;;;;;;38.70;6.25;;;;;;;12.47;75.04;102044.63;5029711;28;20038;-78
2024/02/05 09:49:27;;;;;;;38.47;6.10;;;;;;;11.73;76.58;102062.75;5030106;28;20124;-79
2024/02/05 09:51:53;;;;;;;36.67;6.07;;;;;;;12.34;75.96;102039.94;5029723;28;20116;-78
2024/02/05 09:54:19;;;;;;;35.20;6.93;;;;;;;12.41;75.59;102034.91;5028652;28;20118;-77
2024/02/05 09:56:47;;;;;;;35.10;7.05;;;;;;;12.20;75.71;102036.97;5029955;28;20664;-78
2024/02/05 09:59:12;;;;;;;32.33;6.00;;;;;;;12.48;74.27;102031.59;5020413;28;20041;-78
2024/02/05 10:01:45;;;;;;;41.58;6.60;;;;;;;12.04;75.42;102032.22;5029789;28;20452;-78
2024/02/05 10:04:12;;;;;;;36.45;6.13;;;;;;;12.54;74.32;102034.34;5028413;28;20072;-79
2024/02/05 10:06:40;;;;;;;36.50;6.03;;;;;;;12.38;75.42;102040.03;5028995;28;20041;-78
2024/02/05 10:09:07;;;;;;;42.47;6.60;;;;;;;11.85;76.41;102028.22;5031165;28;20213;-79
2024/02/05 10:11:44;;;;;;;41.67;6.28;;;;;;;12.30;75.76;102028.53;5031499;28;20025;-79
2024/02/05 10:14:10;;;;;;;37.92;6.03;;;;;;;12.16;76.04;102036.03;5028694;28;20057;-79
2024/02/05 10:16:40;;;;;;;35.85;5.90;;;;;;;12.41;74.08;102028.78;5033418;28;20030;-79
2024/02/05 10:19:06;;;;;;;45.05;6.10;;;;;;;12.51;74.22;102031.66;5033387;28;20433;-80
2024/02/05 10:21:32;;;;;;;44.75;6.63;;;;;;;12.49;74.23;102037.72;5033398;28;20030;-79
2024/02/05 10:24:01;;;;;;;43.90;6.80;;;;;;;12.69;73.66;102032.94;5033118;28;20045;-79
2024/02/05 10:26:26;;;;;;;49.05;7.13;;;;;;;12.93;73.89;102060.53;5033892;28;20040;-80
2024/02/05 10:28:52;;;;;;;41.40;6.22;;;;;;;12.69;72.95;102023.34;5033090;28;20537;-78
2024/02/05 10:31:17;;;;;;;42.28;6.03;;;;;;;12.65;74.24;102026.75;5034079;28;20041;-78
2024/02/05 10:33:44;;;;;;;37.55;6.30;;;;;;;12.87;73.76;102026.38;5033562;28;20173;-79
2024/02/05 10:36:15;;;;;;;42.72;6.45;;;;;;;12.47;73.64;102035.06;5033017;28;20112;-79
2024/02/05 10:38:43;;;;;;;39.60;6.20;;;;;;;12.86;73.62;102029.00;5033326;28;20533;-79
2024/02/05 10:41:09;;;;;;;34.33;6.13;;;;;;;12.52;74.59;102028.19;5032795;28;20084;-79
2024/02/05 10:43:34;;;;;;;39.58;6.47;;;;;;;12.76;73.41;102020.03;5033324;28;20410;-80
2024/02/05 10:46:03;;;;;;;47.38;6.40;;;;;;;13.09;72.58;102039.97;5033304;28;20065;-80
2024/02/05 10:48:35;;;;;;;38.40;6.50;;;;;;;12.37;74.30;102013.88;5033658;28;20025;-81
2024/02/05 10:51:00;;;;;;;47.38;7.43;;;;;;;12.81;73.29;102014.88;5031155;28;20026;-80
2024/02/05 10:53:27;;;;;;;41.45;6.47;;;;;;;12.56;74.39;102034.41;5032681;28;20492;-78
2024/02/05 10:55:56;;;;;;;38.65;6.18;;;;;;;12.96;73.00;102030.94;5031503;28;20528;-80
2024/02/05 10:58:23;;;;;;;38.38;6.13;;;;;;;13.20;71.78;102031.50;5031305;28;20037;-79
2024/02/05 11:00:49;;;;;;;35.95;6.18;;;;;;;13.06;71.99;102025.06;5032931;28;20029;-79
2024/02/05 11:03:18;;;;;;;39.85;6.50;;;;;;;12.64;73.14;102029.31;5033946;28;20165;-80
2024/02/05 11:05:50;;;;;;;48.45;6.90;;;;;;;12.92;72.90;102027.41;5033916;28;20061;-79
2024/02/05 11:08:19;;;;;;;31.77;5.45;;;;;;;13.12;72.18;102030.44;5033250;28;20053;-81
2024/02/05 11:10:45;;;;;;;34.08;5.78;;;;;;;12.76;73.36;102016.53;5041822;28;20068;-79
2024/02/05 11:13:18;;;;;;;39.88;6.07;;;;;;;13.89;70.21;101991.81;5044830;28;20028;-79
2024/02/05 11:15:46;;;;;;;32.13;5.70;;;;;;;13.33;70.99;101998.59;5035887;28;20053;-78